sensor_id;sensor_type;location;lat;lon;timestamp;pressure;altitude;pressure_sealevel;temperature;humidity
43804;BME280;29430;52.924;-2.388;2023-07-13T00:03:12;98948.38;;;14.00;92.76
43804;BME280;29430;52.924;-2.388;2023-07-13T00:08:05;98954.34;;;13.97;92.98
43804;BME280;29430;52.924;-2.388;2023-07-13T00:12:56;98955.94;;;13.93;93.81
43804;BME280;29430;52.924;-2.388;2023-07-13T00:17:49;98953.22;;;13.93;93.64
43804;BME280;29430;52.924;-2.388;2023-07-13T00:22:41;98955.13;;;13.92;93.38
43804;BME280;29430;52.924;-2.388;2023-07-13T00:27:33;98956.47;;;13.90;93.64
43804;BME280;29430;52.924;-2.388;2023-07-13T00:32:25;98956.16;;;13.86;93.22
43804;BME280;29430;52.924;-2.388;2023-07-13T00:37:17;98961.88;;;13.85;93.37
43804;BME280;29430;52.924;-2.388;2023-07-13T00:42:09;98968.59;;;13.77;94.13
43804;BME280;29430;52.924;-2.388;2023-07-13T00:47:01;98969.94;;;13.74;94.76
43804;BME280;29430;52.924;-2.388;2023-07-13T00:51:59;98965.59;;;13.73;95.69
43804;BME280;29430;52.924;-2.388;2023-07-13T00:56:56;98963.13;;;13.72;95.68
43804;BME280;29430;52.924;-2.388;2023-07-13T01:01:49;98961.47;;;13.71;95.21
43804;BME280;29430;52.924;-2.388;2023-07-13T01:06:42;98966.09;;;13.70;95.93
43804;BME280;29430;52.924;-2.388;2023-07-13T01:11:35;98964.16;;;13.66;96.14
43804;BME280;29430;52.924;-2.388;2023-07-13T01:16:31;98960.53;;;13.60;96.76
43804;BME280;29430;52.924;-2.388;2023-07-13T01:21:23;98957.25;;;13.58;97.64
43804;BME280;29430;52.924;-2.388;2023-07-13T01:26:15;98957.50;;;13.56;98.91
43804;BME280;29430;52.924;-2.388;2023-07-13T01:31:06;98967.31;;;13.57;98.95
43804;BME280;29430;52.924;-2.388;2023-07-13T01:36:00;98956.16;;;13.59;99.00
43804;BME280;29430;52.924;-2.388;2023-07-13T01:40:54;98966.25;;;13.58;99.08
43804;BME280;29430;52.924;-2.388;2023-07-13T01:45:46;98961.94;;;13.63;99.48
43804;BME280;29430;52.924;-2.388;2023-07-13T01:50:38;98960.03;;;13.63;100.00
43804;BME280;29430;52.924;-2.388;2023-07-13T01:55:30;98966.63;;;13.67;100.00
43804;BME280;29430;52.924;-2.388;2023-07-13T02:00:22;98964.44;;;13.69;100.00
43804;BME280;29430;52.924;-2.388;2023-07-13T02:05:14;98973.19;;;13.71;100.00
43804;BME280;29430;52.924;-2.388;2023-07-13T02:10:08;98970.78;;;13.75;100.00
43804;BME280;29430;52.924;-2.388;2023-07-13T02:15:00;98974.06;;;13.77;100.00
43804;BME280;29430;52.924;-2.388;2023-07-13T02:19:52;98973.25;;;13.76;100.00
43804;BME280;29430;52.924;-2.388;2023-07-13T02:24:44;98962.34;;;13.76;100.00
43804;BME280;29430;52.924;-2.388;2023-07-13T02:29:36;98957.16;;;13.75;100.00
43804;BME280;29430;52.924;-2.388;2023-07-13T02:34:27;98957.16;;;13.75;100.00
43804;BME280;29430;52.924;-2.388;2023-07-13T02:39:23;98957.16;;;13.75;100.00
43804;BME280;29430;52.924;-2.388;2023-07-13T02:44:15;98955.25;;;13.75;100.00
43804;BME280;29430;52.924;-2.388;2023-07-13T02:49:07;98943.00;;;13.78;100.00
43804;BME280;29430;52.924;-2.388;2023-07-13T02:53:59;98948.75;;;13.82;100.00
43804;BME280;29430;52.924;-2.388;2023-07-13T02:58:51;98934.00;;;13.77;100.00
43804;BME280;29430;52.924;-2.388;2023-07-13T03:03:45;98935.34;;;13.75;100.00
43804;BME280;29430;52.924;-2.388;2023-07-13T03:08:37;98932.00;;;13.68;100.00
43804;BME280;29430;52.924;-2.388;2023-07-13T03:13:29;98920.22;;;13.62;100.00
43804;BME280;29430;52.924;-2.388;2023-07-13T03:18:21;98922.94;;;13.62;100.00
43804;BME280;29430;52.924;-2.388;2023-07-13T03:23:13;98936.06;;;13.65;100.00
43804;BME280;29430;52.924;-2.388;2023-07-13T03:28:04;98937.97;;;13.65;100.00
43804;BME280;29430;52.924;-2.388;2023-07-13T03:32:57;98949.63;;;13.60;100.00
43804;BME280;29430;52.924;-2.388;2023-07-13T03:37:48;98951.22;;;13.56;100.00
43804;BME280;29430;52.924;-2.388;2023-07-13T03:42:40;98950.91;;;13.52;100.00
43804;BME280;29430;52.924;-2.388;2023-07-13T03:47:32;98952.25;;;13.50;100.00
43804;BME280;29430;52.924;-2.388;2023-07-13T03:52:24;98962.03;;;13.46;100.00
43804;BME280;29430;52.924;-2.388;2023-07-13T03:57:15;98961.19;;;13.45;100.00
43804;BME280;29430;52.924;-2.388;2023-07-13T04:02:07;98971.00;;;13.46;100.00
43804;BME280;29430;52.924;-2.388;2023-07-13T04:06:59;98970.44;;;13.44;100.00
43804;BME280;29430;52.924;-2.388;2023-07-13T04:11:51;98969.34;;;13.45;100.00
43804;BME280;29430;52.924;-2.388;2023-07-13T04:16:43;98975.38;;;13.47;100.00
43804;BME280;29430;52.924;-2.388;2023-07-13T04:21:35;98977.53;;;13.45;100.00
43804;BME280;29430;52.924;-2.388;2023-07-13T04:26:27;98979.44;;;13.45;100.00
43804;BME280;29430;52.924;-2.388;2023-07-13T04:31:20;98982.47;;;13.48;100.00
43804;BME280;29430;52.924;-2.388;2023-07-13T04:36:12;98986.06;;;13.54;100.00
43804;BME280;29430;52.924;-2.388;2023-07-13T04:41:06;98996.72;;;13.55;100.00
43804;BME280;29430;52.924;-2.388;2023-07-13T04:46:13;99000.78;;;13.53;100.00
43804;BME280;29430;52.924;-2.388;2023-07-13T04:51:06;98996.47;;;13.57;100.00
43804;BME280;29430;52.924;-2.388;2023-07-13T04:55:58;99001.41;;;13.60;100.00
43804;BME280;29430;52.924;-2.388;2023-07-13T05:00:50;99003.38;;;13.65;100.00
43804;BME280;29430;52.924;-2.388;2023-07-13T05:05:41;99009.44;;;13.72;100.00
43804;BME280;29430;52.924;-2.388;2023-07-13T05:10:34;99009.50;;;13.77;100.00
43804;BME280;29430;52.924;-2.388;2023-07-13T05:15:26;99019.13;;;13.85;100.00
43804;BME280;29430;52.924;-2.388;2023-07-13T05:20:18;99016.59;;;14.05;100.00
43804;BME280;29430;52.924;-2.388;2023-07-13T05:25:10;99017.97;;;14.67;100.00
43804;BME280;29430;52.924;-2.388;2023-07-13T05:30:03;99023.81;;;15.34;100.00
43804;BME280;29430;52.924;-2.388;2023-07-13T05:34:55;99029.78;;;16.00;100.00
43804;BME280;29430;52.924;-2.388;2023-07-13T05:39:47;99028.47;;;16.54;96.97
43804;BME280;29430;52.924;-2.388;2023-07-13T05:44:39;99044.34;;;16.82;94.02
43804;BME280;29430;52.924;-2.388;2023-07-13T05:49:31;99049.22;;;17.22;94.83
43804;BME280;29430;52.924;-2.388;2023-07-13T05:54:22;99053.50;;;17.59;90.46
43804;BME280;29430;52.924;-2.388;2023-07-13T05:59:14;99050.97;;;17.72;88.17
43804;BME280;29430;52.924;-2.388;2023-07-13T06:04:06;99057.78;;;17.80;85.80
43804;BME280;29430;52.924;-2.388;2023-07-13T06:08:57;99057.50;;;17.82;87.37
43804;BME280;29430;52.924;-2.388;2023-07-13T06:13:49;99067.09;;;17.79;85.00
43804;BME280;29430;52.924;-2.388;2023-07-13T06:18:41;99081.44;;;17.66;85.49
43804;BME280;29430;52.924;-2.388;2023-07-13T06:23:33;99083.34;;;17.65;86.03
43804;BME280;29430;52.924;-2.388;2023-07-13T06:28:24;99075.19;;;17.55;85.46
43804;BME280;29430;52.924;-2.388;2023-07-13T06:33:16;99078.47;;;17.57;85.62
43804;BME280;29430;52.924;-2.388;2023-07-13T06:38:08;99075.72;;;17.57;85.90
43804;BME280;29430;52.924;-2.388;2023-07-13T06:42:59;99088.28;;;17.68;86.51
43804;BME280;29430;52.924;-2.388;2023-07-13T06:47:51;99076.97;;;17.85;85.13
43804;BME280;29430;52.924;-2.388;2023-07-13T06:52:43;99078.06;;;17.89;84.36
43804;BME280;29430;52.924;-2.388;2023-07-13T06:57:34;99087.41;;;17.88;84.35
43804;BME280;29430;52.924;-2.388;2023-07-13T07:02:26;99094.53;;;17.84;84.74
43804;BME280;29430;52.924;-2.388;2023-07-13T07:07:18;99101.38;;;17.87;84.10
43804;BME280;29430;52.924;-2.388;2023-07-13T07:12:10;99099.19;;;17.84;83.39
43804;BME280;29430;52.924;-2.388;2023-07-13T07:17:05;99103.22;;;18.07;85.74
43804;BME280;29430;52.924;-2.388;2023-07-13T07:21:57;99105.56;;;18.69;82.00
43804;BME280;29430;52.924;-2.388;2023-07-13T07:26:49;99102.72;;;18.89;79.74
43804;BME280;29430;52.924;-2.388;2023-07-13T07:31:43;99113.06;;;18.98;78.09
43804;BME280;29430;52.924;-2.388;2023-07-13T07:36:38;99113.75;;;19.13;77.88
43804;BME280;29430;52.924;-2.388;2023-07-13T07:41:32;99114.00;;;19.41;76.52
43804;BME280;29430;52.924;-2.388;2023-07-13T07:46:27;99117.09;;;19.88;75.10
43804;BME280;29430;52.924;-2.388;2023-07-13T07:51:19;99124.00;;;20.10;73.17
43804;BME280;29430;52.924;-2.388;2023-07-13T07:56:11;99135.41;;;19.98;69.36
43804;BME280;29430;52.924;-2.388;2023-07-13T08:01:06;99138.53;;;19.91;71.58
43804;BME280;29430;52.924;-2.388;2023-07-13T08:06:01;99131.38;;;19.90;71.69
43804;BME280;29430;52.924;-2.388;2023-07-13T08:11:13;99139.16;;;20.07;70.15
43804;BME280;29430;52.924;-2.388;2023-07-13T08:16:07;99134.94;;;20.15;71.17
43804;BME280;29430;52.924;-2.388;2023-07-13T08:21:04;99126.06;;;20.18;68.71
43804;BME280;29430;52.924;-2.388;2023-07-13T08:25:56;99131.25;;;20.44;68.46
43804;BME280;29430;52.924;-2.388;2023-07-13T08:30:48;99129.06;;;20.79;66.97
43804;BME280;29430;52.924;-2.388;2023-07-13T08:35:40;99136.78;;;20.96;66.07
43804;BME280;29430;52.924;-2.388;2023-07-13T08:40:33;99134.56;;;20.98;63.15
43804;BME280;29430;52.924;-2.388;2023-07-13T08:45:30;99133.66;;;21.02;59.22
43804;BME280;29430;52.924;-2.388;2023-07-13T08:50:30;99137.38;;;21.58;61.27
43804;BME280;29430;52.924;-2.388;2023-07-13T08:55:40;99143.22;;;22.49;55.03
43804;BME280;29430;52.924;-2.388;2023-07-13T09:05:59;99133.69;;;23.46;52.10
43804;BME280;29430;52.924;-2.388;2023-07-13T09:11:02;99131.97;;;23.99;52.89
43804;BME280;29430;52.924;-2.388;2023-07-13T09:15:59;99119.16;;;24.46;50.32
43804;BME280;29430;52.924;-2.388;2023-07-13T09:21:08;99127.50;;;24.99;49.31
43804;BME280;29430;52.924;-2.388;2023-07-13T09:26:11;99129.63;;;25.67;47.66
43804;BME280;29430;52.924;-2.388;2023-07-13T09:31:07;99124.91;;;26.06;45.29
43804;BME280;29430;52.924;-2.388;2023-07-13T09:36:31;99126.66;;;26.11;45.32
43804;BME280;29430;52.924;-2.388;2023-07-13T09:41:29;99125.91;;;25.92;44.25
43804;BME280;29430;52.924;-2.388;2023-07-13T09:46:24;99120.44;;;26.14;45.56
43804;BME280;29430;52.924;-2.388;2023-07-13T09:51:16;99128.47;;;26.06;43.77
43804;BME280;29430;52.924;-2.388;2023-07-13T09:56:22;99126.00;;;26.14;42.95
43804;BME280;29430;52.924;-2.388;2023-07-13T10:01:14;99133.78;;;26.20;43.31
43804;BME280;29430;52.924;-2.388;2023-07-13T10:06:16;99136.78;;;25.77;43.40
43804;BME280;29430;52.924;-2.388;2023-07-13T10:16:10;99136.81;;;24.94;45.92
43804;BME280;29430;52.924;-2.388;2023-07-13T10:21:18;99146.25;;;25.11;43.22
43804;BME280;29430;52.924;-2.388;2023-07-13T10:26:18;99150.66;;;25.12;45.08
43804;BME280;29430;52.924;-2.388;2023-07-13T10:31:13;99143.47;;;25.76;44.78
43804;BME280;29430;52.924;-2.388;2023-07-13T10:41:22;99147.88;;;26.66;43.96
43804;BME280;29430;52.924;-2.388;2023-07-13T10:46:19;99137.97;;;27.11;42.58
43804;BME280;29430;52.924;-2.388;2023-07-13T10:51:14;99134.41;;;27.56;42.47
43804;BME280;29430;52.924;-2.388;2023-07-13T10:56:22;99150.13;;;27.85;39.63
43804;BME280;29430;52.924;-2.388;2023-07-13T11:01:17;99146.78;;;27.46;40.12
43804;BME280;29430;52.924;-2.388;2023-07-13T11:06:11;99142.03;;;27.35;42.31
43804;BME280;29430;52.924;-2.388;2023-07-13T11:21:20;99145.31;;;26.52;42.12
43804;BME280;29430;52.924;-2.388;2023-07-13T11:31:40;99133.34;;;25.80;42.99
43804;BME280;29430;52.924;-2.388;2023-07-13T11:36:38;99127.91;;;25.53;42.69
43804;BME280;29430;52.924;-2.388;2023-07-13T11:41:37;99133.47;;;25.45;43.79
43804;BME280;29430;52.924;-2.388;2023-07-13T11:46:34;99123.94;;;25.63;43.87
43804;BME280;29430;52.924;-2.388;2023-07-13T11:51:31;99124.47;;;26.16;43.97
43804;BME280;29430;52.924;-2.388;2023-07-13T11:56:24;99121.69;;;26.67;43.12
43804;BME280;29430;52.924;-2.388;2023-07-13T12:01:23;99119.94;;;26.54;41.88
43804;BME280;29430;52.924;-2.388;2023-07-13T12:06:36;99113.31;;;26.25;42.22
43804;BME280;29430;52.924;-2.388;2023-07-13T12:11:35;99106.28;;;25.98;44.13
43804;BME280;29430;52.924;-2.388;2023-07-13T12:16:32;99109.56;;;26.21;44.52
43804;BME280;29430;52.924;-2.388;2023-07-13T12:21:43;99105.66;;;26.22;42.83
43804;BME280;29430;52.924;-2.388;2023-07-13T12:26:35;99103.53;;;25.89;43.00
43804;BME280;29430;52.924;-2.388;2023-07-13T12:31:34;99098.50;;;25.44;42.63
43804;BME280;29430;52.924;-2.388;2023-07-13T12:36:30;99096.94;;;25.16;43.94
43804;BME280;29430;52.924;-2.388;2023-07-13T12:41:22;99097.97;;;24.94;44.30
43804;BME280;29430;52.924;-2.388;2023-07-13T12:46:19;99093.91;;;24.74;45.00
43804;BME280;29430;52.924;-2.388;2023-07-13T12:51:13;99089.66;;;24.68;44.58
43804;BME280;29430;52.924;-2.388;2023-07-13T12:56:05;99096.84;;;24.60;45.60
43804;BME280;29430;52.924;-2.388;2023-07-13T13:00:59;99095.03;;;24.47;45.73
43804;BME280;29430;52.924;-2.388;2023-07-13T13:10:54;99093.06;;;24.39;46.53
43804;BME280;29430;52.924;-2.388;2023-07-13T13:15:47;99085.91;;;24.55;47.83
43804;BME280;29430;52.924;-2.388;2023-07-13T13:20:38;99087.56;;;24.74;43.64
43804;BME280;29430;52.924;-2.388;2023-07-13T13:25:30;99074.16;;;24.76;45.70
43804;BME280;29430;52.924;-2.388;2023-07-13T13:30:22;99061.94;;;24.86;44.95
43804;BME280;29430;52.924;-2.388;2023-07-13T13:35:18;99063.72;;;24.73;43.34
43804;BME280;29430;52.924;-2.388;2023-07-13T13:40:21;99070.75;;;24.70;45.44
43804;BME280;29430;52.924;-2.388;2023-07-13T13:45:18;99073.69;;;24.65;45.05
43804;BME280;29430;52.924;-2.388;2023-07-13T13:50:13;99070.41;;;24.54;45.09
43804;BME280;29430;52.924;-2.388;2023-07-13T13:55:16;99067.19;;;24.61;45.82
43804;BME280;29430;52.924;-2.388;2023-07-13T14:00:11;99063.56;;;24.60;43.72
43804;BME280;29430;52.924;-2.388;2023-07-13T14:05:06;99059.97;;;24.34;45.16
43804;BME280;29430;52.924;-2.388;2023-07-13T14:10:00;99055.56;;;24.33;45.09
43804;BME280;29430;52.924;-2.388;2023-07-13T14:14:52;99057.84;;;24.48;46.29
43804;BME280;29430;52.924;-2.388;2023-07-13T14:19:44;99056.88;;;24.79;44.59
43804;BME280;29430;52.924;-2.388;2023-07-13T14:24:36;99054.75;;;24.76;43.70
43804;BME280;29430;52.924;-2.388;2023-07-13T14:29:28;99064.38;;;24.70;43.82
43804;BME280;29430;52.924;-2.388;2023-07-13T14:34:20;99068.47;;;24.55;43.15
43804;BME280;29430;52.924;-2.388;2023-07-13T14:39:13;99064.53;;;24.29;44.42
43804;BME280;29430;52.924;-2.388;2023-07-13T14:44:17;99068.44;;;24.11;45.18
43804;BME280;29430;52.924;-2.388;2023-07-13T14:49:33;99074.75;;;23.85;46.14
43804;BME280;29430;52.924;-2.388;2023-07-13T14:54:26;99067.38;;;23.81;48.48
43804;BME280;29430;52.924;-2.388;2023-07-13T14:59:18;99070.69;;;23.91;48.97
43804;BME280;29430;52.924;-2.388;2023-07-13T15:04:10;99068.47;;;24.28;49.34
43804;BME280;29430;52.924;-2.388;2023-07-13T15:09:02;99069.94;;;24.35;47.77
43804;BME280;29430;52.924;-2.388;2023-07-13T15:13:55;99085.25;;;24.15;48.66
43804;BME280;29430;52.924;-2.388;2023-07-13T15:18:47;99071.53;;;24.01;48.96
43804;BME280;29430;52.924;-2.388;2023-07-13T15:23:40;99080.63;;;23.92;48.18
43804;BME280;29430;52.924;-2.388;2023-07-13T15:28:31;99080.47;;;23.89;49.84
43804;BME280;29430;52.924;-2.388;2023-07-13T15:33:28;99074.22;;;23.83;48.59
43804;BME280;29430;52.924;-2.388;2023-07-13T15:38:22;99072.41;;;23.70;48.66
43804;BME280;29430;52.924;-2.388;2023-07-13T15:43:15;99070.28;;;23.67;49.25
43804;BME280;29430;52.924;-2.388;2023-07-13T15:48:21;99072.41;;;23.70;50.44
43804;BME280;29430;52.924;-2.388;2023-07-13T15:53:13;99068.28;;;23.58;48.28
43804;BME280;29430;52.924;-2.388;2023-07-13T15:58:10;99067.41;;;23.40;50.05
43804;BME280;29430;52.924;-2.388;2023-07-13T16:03:03;99077.13;;;23.29;52.26
43804;BME280;29430;52.924;-2.388;2023-07-13T16:07:55;99081.22;;;23.32;52.99
43804;BME280;29430;52.924;-2.388;2023-07-13T16:12:48;99076.41;;;23.15;51.09
43804;BME280;29430;52.924;-2.388;2023-07-13T16:17:40;99075.06;;;23.12;51.38
43804;BME280;29430;52.924;-2.388;2023-07-13T16:22:32;99076.84;;;23.08;50.58
43804;BME280;29430;52.924;-2.388;2023-07-13T16:27:24;99082.16;;;23.04;50.21
43804;BME280;29430;52.924;-2.388;2023-07-13T16:32:16;99082.13;;;22.96;49.58
43804;BME280;29430;52.924;-2.388;2023-07-13T16:37:28;99086.72;;;22.78;49.05
43804;BME280;29430;52.924;-2.388;2023-07-13T16:42:20;99083.88;;;22.69;50.65
43804;BME280;29430;52.924;-2.388;2023-07-13T16:47:14;99085.75;;;22.60;49.85
43804;BME280;29430;52.924;-2.388;2023-07-13T16:52:11;99095.56;;;22.43;50.13
43804;BME280;29430;52.924;-2.388;2023-07-13T16:57:12;99091.69;;;22.30;49.11
43804;BME280;29430;52.924;-2.388;2023-07-13T17:07:18;99100.63;;;21.99;48.95
43804;BME280;29430;52.924;-2.388;2023-07-13T17:12:13;99097.28;;;21.89;48.58
43804;BME280;29430;52.924;-2.388;2023-07-13T17:17:32;99101.06;;;21.79;49.53
43804;BME280;29430;52.924;-2.388;2023-07-13T17:22:25;99112.31;;;21.69;49.35
43804;BME280;29430;52.924;-2.388;2023-07-13T17:27:19;99109.56;;;21.69;49.98
43804;BME280;29430;52.924;-2.388;2023-07-13T17:32:18;99104.03;;;21.55;48.09
43804;BME280;29430;52.924;-2.388;2023-07-13T17:37:17;99114.72;;;21.42;48.62
43804;BME280;29430;52.924;-2.388;2023-07-13T17:42:11;99124.31;;;21.31;47.59
43804;BME280;29430;52.924;-2.388;2023-07-13T17:47:39;99120.41;;;21.18;46.79
43804;BME280;29430;52.924;-2.388;2023-07-13T17:52:31;99119.88;;;21.02;46.98
43804;BME280;29430;52.924;-2.388;2023-07-13T17:57:23;99114.31;;;20.88;46.72
43804;BME280;29430;52.924;-2.388;2023-07-13T18:02:18;99121.34;;;20.81;47.43
43804;BME280;29430;52.924;-2.388;2023-07-13T18:07:12;99118.13;;;20.73;47.35
43804;BME280;29430;52.924;-2.388;2023-07-13T18:12:09;99122.44;;;20.61;47.26
43804;BME280;29430;52.924;-2.388;2023-07-13T18:17:01;99120.44;;;20.47;47.71
43804;BME280;29430;52.924;-2.388;2023-07-13T18:21:53;99127.72;;;20.38;48.06
43804;BME280;29430;52.924;-2.388;2023-07-13T18:26:44;99114.94;;;20.28;48.97
43804;BME280;29430;52.924;-2.388;2023-07-13T18:31:37;99115.88;;;20.18;49.63
43804;BME280;29430;52.924;-2.388;2023-07-13T18:36:29;99120.69;;;20.08;50.13
43804;BME280;29430;52.924;-2.388;2023-07-13T18:41:21;99131.31;;;19.95;50.08
43804;BME280;29430;52.924;-2.388;2023-07-13T18:46:21;99127.34;;;19.82;51.17
43804;BME280;29430;52.924;-2.388;2023-07-13T18:51:16;99133.28;;;19.65;51.67
43804;BME280;29430;52.924;-2.388;2023-07-13T18:56:07;99140.84;;;19.55;51.83
43804;BME280;29430;52.924;-2.388;2023-07-13T19:01:08;99143.97;;;19.43;52.51
43804;BME280;29430;52.924;-2.388;2023-07-13T19:06:04;99151.47;;;19.37;53.30
43804;BME280;29430;52.924;-2.388;2023-07-13T19:10:57;99155.69;;;19.29;53.61
43804;BME280;29430;52.924;-2.388;2023-07-13T19:15:49;99155.19;;;19.22;54.39
43804;BME280;29430;52.924;-2.388;2023-07-13T19:20:41;99149.19;;;19.15;54.89
43804;BME280;29430;52.924;-2.388;2023-07-13T19:25:33;99161.34;;;19.09;55.65
43804;BME280;29430;52.924;-2.388;2023-07-13T19:30:25;99151.22;;;19.04;56.06
43804;BME280;29430;52.924;-2.388;2023-07-13T19:35:18;99153.22;;;18.93;57.03
43804;BME280;29430;52.924;-2.388;2023-07-13T19:40:19;99145.84;;;18.84;57.84
43804;BME280;29430;52.924;-2.388;2023-07-13T19:45:20;99150.56;;;18.78;58.38
43804;BME280;29430;52.924;-2.388;2023-07-13T19:50:13;99145.44;;;18.66;59.18
43804;BME280;29430;52.924;-2.388;2023-07-13T19:55:09;99157.28;;;18.61;59.88
43804;BME280;29430;52.924;-2.388;2023-07-13T20:00:09;99162.25;;;18.54;60.35
43804;BME280;29430;52.924;-2.388;2023-07-13T20:05:05;99161.75;;;18.47;60.88
43804;BME280;29430;52.924;-2.388;2023-07-13T20:09:56;99159.63;;;18.39;61.23
43804;BME280;29430;52.924;-2.388;2023-07-13T20:14:49;99158.53;;;18.35;61.87
43804;BME280;29430;52.924;-2.388;2023-07-13T20:19:41;99156.94;;;18.23;62.23
43804;BME280;29430;52.924;-2.388;2023-07-13T20:24:32;99158.88;;;18.18;62.70
43804;BME280;29430;52.924;-2.388;2023-07-13T20:29:24;99152.09;;;18.05;62.84
43804;BME280;29430;52.924;-2.388;2023-07-13T20:34:25;99160.34;;;17.95;63.22
43804;BME280;29430;52.924;-2.388;2023-07-13T20:39:19;99161.50;;;17.78;64.24
43804;BME280;29430;52.924;-2.388;2023-07-13T20:44:10;99169.50;;;17.64;64.93
43804;BME280;29430;52.924;-2.388;2023-07-13T20:49:02;99173.88;;;17.60;65.09
43804;BME280;29430;52.924;-2.388;2023-07-13T20:53:54;99162.38;;;17.58;65.08
43804;BME280;29430;52.924;-2.388;2023-07-13T20:58:47;99158.50;;;17.59;64.92
43804;BME280;29430;52.924;-2.388;2023-07-13T21:03:38;99162.94;;;17.55;64.92
43804;BME280;29430;52.924;-2.388;2023-07-13T21:08:32;99170.34;;;17.49;65.15
43804;BME280;29430;52.924;-2.388;2023-07-13T21:13:23;99156.63;;;17.39;65.56
43804;BME280;29430;52.924;-2.388;2023-07-13T21:18:21;99155.84;;;17.33;65.83
43804;BME280;29430;52.924;-2.388;2023-07-13T21:28:21;99154.47;;;17.15;65.80
43804;BME280;29430;52.924;-2.388;2023-07-13T21:33:14;99153.66;;;17.10;66.25
43804;BME280;29430;52.924;-2.388;2023-07-13T21:38:17;99150.38;;;17.03;66.30
43804;BME280;29430;52.924;-2.388;2023-07-13T21:43:11;99156.69;;;16.98;66.22
43804;BME280;29430;52.924;-2.388;2023-07-13T21:48:03;99158.06;;;16.90;66.50
43804;BME280;29430;52.924;-2.388;2023-07-13T21:52:55;99156.91;;;16.81;67.40
43804;BME280;29430;52.924;-2.388;2023-07-13T21:57:49;99159.91;;;16.74;68.15
43804;BME280;29430;52.924;-2.388;2023-07-13T22:02:41;99155.53;;;16.68;68.40
43804;BME280;29430;52.924;-2.388;2023-07-13T22:07:33;99153.59;;;16.63;68.66
43804;BME280;29430;52.924;-2.388;2023-07-13T22:12:25;99149.22;;;16.57;68.84
43804;BME280;29430;52.924;-2.388;2023-07-13T22:17:17;99141.81;;;16.47;69.11
43804;BME280;29430;52.924;-2.388;2023-07-13T22:22:10;99147.28;;;16.42;69.21
43804;BME280;29430;52.924;-2.388;2023-07-13T22:27:03;99149.72;;;16.34;69.30
43804;BME280;29430;52.924;-2.388;2023-07-13T22:31:55;99143.66;;;16.26;69.96
43804;BME280;29430;52.924;-2.388;2023-07-13T22:36:47;99136.84;;;16.24;69.64
43804;BME280;29430;52.924;-2.388;2023-07-13T22:41:39;99139.56;;;16.29;69.05
43804;BME280;29430;52.924;-2.388;2023-07-13T22:46:31;99129.44;;;16.29;69.21
43804;BME280;29430;52.924;-2.388;2023-07-13T22:51:25;99135.22;;;16.33;68.88
43804;BME280;29430;52.924;-2.388;2023-07-13T22:56:17;99118.53;;;16.35;69.09
43804;BME280;29430;52.924;-2.388;2023-07-13T23:06:29;99123.19;;;16.39;68.43
43804;BME280;29430;52.924;-2.388;2023-07-13T23:11:23;99117.69;;;16.34;68.42
43804;BME280;29430;52.924;-2.388;2023-07-13T23:16:18;99107.81;;;16.28;68.58
43804;BME280;29430;52.924;-2.388;2023-07-13T23:21:16;99109.19;;;16.25;68.79
43804;BME280;29430;52.924;-2.388;2023-07-13T23:26:16;99107.28;;;16.21;68.39
43804;BME280;29430;52.924;-2.388;2023-07-13T23:31:16;99101.50;;;16.12;68.18
43804;BME280;29430;52.924;-2.388;2023-07-13T23:36:15;99094.63;;;16.04;68.68
43804;BME280;29430;52.924;-2.388;2023-07-13T23:41:18;99097.06;;;15.90;70.39
43804;BME280;29430;52.924;-2.388;2023-07-13T23:51:27;99088.22;;;15.68;73.45
43804;BME280;29430;52.924;-2.388;2023-07-13T23:56:21;99085.44;;;15.63;74.76
